createdAt,value
2022-12-20T00:02:20.994Z,53.70
2022-12-20T00:07:22.767Z,53.53
2022-12-20T00:12:24.523Z,53.51
2022-12-20T00:17:26.100Z,53.47
2022-12-20T00:22:28.039Z,53.73
2022-12-20T00:27:29.890Z,53.25
2022-12-20T00:32:31.581Z,53.41
2022-12-20T00:37:33.527Z,53.32
2022-12-20T00:42:35.193Z,53.31
2022-12-20T00:47:36.748Z,53.63
2022-12-20T00:52:38.281Z,53.80
2022-12-20T00:57:40.200Z,53.47
2022-12-20T01:02:41.919Z,53.24
2022-12-20T01:07:43.583Z,53.67
2022-12-20T01:12:45.289Z,53.49
2022-12-20T01:17:47.397Z,53.43
2022-12-20T01:22:49.038Z,53.23
2022-12-20T01:27:50.720Z,53.37
2022-12-20T01:32:52.495Z,53.30
2022-12-20T01:37:54.485Z,53.70
2022-12-20T01:42:56.022Z,53.20
2022-12-20T01:47:59.849Z,53.68
2022-12-20T01:53:04.249Z,53.73
2022-12-20T01:58:09.731Z,53.36
2022-12-20T02:03:13.934Z,53.82
2022-12-20T02:08:18.381Z,53.76
2022-12-20T02:13:39.226Z,53.34
2022-12-20T02:19:00.111Z,53.46
2022-12-20T02:24:22.167Z,53.10
2022-12-20T02:30:01.423Z,53.40
2022-12-20T02:35:04.686Z,53.58
2022-12-20T02:40:07.144Z,53.55
2022-12-20T02:45:17.189Z,53.54
2022-12-20T02:50:45.814Z,53.26
2022-12-20T02:56:02.115Z,53.33
2022-12-20T03:01:12.214Z,53.02
2022-12-20T03:06:14.026Z,53.19
2022-12-20T03:11:16.173Z,53.40
2022-12-20T03:16:18.071Z,52.99
2022-12-20T03:21:19.699Z,52.96
2022-12-20T03:26:22.780Z,52.87
2022-12-20T03:31:29.966Z,53.27
2022-12-20T03:36:32.469Z,53.09
2022-12-20T03:41:37.544Z,53.16
2022-12-20T03:46:40.283Z,53.17
2022-12-20T03:51:42.311Z,53.52
2022-12-20T03:56:44.244Z,53.18
2022-12-20T04:01:46.074Z,53.53
2022-12-20T04:06:48.367Z,53.46
2022-12-20T04:11:50.813Z,53.41
2022-12-20T04:16:52.461Z,53.44
2022-12-20T04:22:04.625Z,53.41
2022-12-20T04:27:19.486Z,53.48
2022-12-20T04:32:21.719Z,53.28
2022-12-20T04:37:24.202Z,53.73
2022-12-20T04:42:28.504Z,53.49
2022-12-20T04:47:31.342Z,53.46
2022-12-20T04:52:51.883Z,53.85
2022-12-20T04:57:53.620Z,53.42
2022-12-20T05:02:55.546Z,53.67
2022-12-20T05:07:59.585Z,53.58
2022-12-20T05:13:08.956Z,53.93
2022-12-20T05:18:15.023Z,53.67
2022-12-20T05:23:42.960Z,53.45
2022-12-20T05:28:49.658Z,53.95
2022-12-20T05:33:51.512Z,53.79
2022-12-20T05:38:56.783Z,53.65
2022-12-20T05:44:04.608Z,53.80
2022-12-20T05:49:09.300Z,54.16
2022-12-20T05:54:11.452Z,53.59
2022-12-20T05:59:19.552Z,53.76
2022-12-20T06:04:22.075Z,53.77
2022-12-20T06:09:23.966Z,53.81
2022-12-20T06:14:35.279Z,53.78
2022-12-20T06:19:37.030Z,54.03
2022-12-20T06:24:44.295Z,53.69
2022-12-20T06:29:52.106Z,53.50
2022-12-20T06:34:56.807Z,53.97
2022-12-20T06:39:58.584Z,53.59
2022-12-20T06:45:00.320Z,53.79
2022-12-20T06:50:05.521Z,53.53
2022-12-20T06:55:07.813Z,53.64
2022-12-20T07:00:14.013Z,53.95
2022-12-20T07:05:15.605Z,53.35
2022-12-20T07:10:17.661Z,53.64
2022-12-20T07:15:19.258Z,53.93
2022-12-20T07:20:20.802Z,53.76
2022-12-20T07:25:22.454Z,53.61
2022-12-20T07:30:23.985Z,53.80
2022-12-20T07:35:27.760Z,53.83
2022-12-20T07:40:29.787Z,54.19
2022-12-20T07:45:31.430Z,53.97
2022-12-20T07:50:36.018Z,53.72
2022-12-20T07:55:40.491Z,53.69
2022-12-20T08:00:42.824Z,53.62
2022-12-20T08:05:48.944Z,53.78
2022-12-20T08:10:50.935Z,53.75
2022-12-20T08:15:52.525Z,54.11
2022-12-20T08:20:54.068Z,53.81
2022-12-20T08:25:55.696Z,54.03
2022-12-20T08:31:05.468Z,53.96
2022-12-20T08:36:09.933Z,53.96
2022-12-20T08:41:14.630Z,53.89
2022-12-20T08:46:16.279Z,53.88
2022-12-20T08:51:17.950Z,53.85
2022-12-20T08:56:20.165Z,53.72
2022-12-20T09:01:22.897Z,53.37
2022-12-20T09:06:24.691Z,53.36
2022-12-20T09:11:27.429Z,53.51
2022-12-20T09:16:31.446Z,53.58
2022-12-20T09:21:33.954Z,53.58
2022-12-20T09:26:35.851Z,53.47
2022-12-20T09:31:37.644Z,53.59
2022-12-20T09:36:39.449Z,53.56
2022-12-20T09:41:43.162Z,53.88
2022-12-20T09:46:51.600Z,53.58
2022-12-20T09:52:12.294Z,53.69
2022-12-20T09:57:51.944Z,53.90
2022-12-20T10:03:02.035Z,53.50
2022-12-20T10:08:31.348Z,53.33
2022-12-20T10:13:53.700Z,53.46
2022-12-20T10:19:11.668Z,53.59
2022-12-20T10:24:19.600Z,53.72
2022-12-20T10:29:21.532Z,53.77
2022-12-20T10:34:23.703Z,53.42
2022-12-20T10:39:41.498Z,53.69
2022-12-20T10:44:44.188Z,53.56
2022-12-20T10:49:45.838Z,53.48
2022-12-20T10:54:47.744Z,53.66
2022-12-20T10:59:53.989Z,53.59
2022-12-20T11:05:19.248Z,53.14
2022-12-20T11:10:24.496Z,53.04
2022-12-20T11:15:34.684Z,52.68
2022-12-20T11:20:47.446Z,52.97
2022-12-20T11:26:21.080Z,53.05
2022-12-20T11:31:48.641Z,52.72
2022-12-20T11:37:21.384Z,52.72
2022-12-20T11:42:38.417Z,52.64
2022-12-20T11:47:58.238Z,52.82
2022-12-20T11:53:20.798Z,52.50
2022-12-20T11:58:54.415Z,52.41
2022-12-20T12:04:17.672Z,52.46
2022-12-20T12:09:33.424Z,52.49
2022-12-20T12:14:53.271Z,52.28
2022-12-20T12:20:00.928Z,52.27
2022-12-20T12:25:09.007Z,52.55
2022-12-20T12:30:17.339Z,52.69
2022-12-20T12:35:44.041Z,52.44
2022-12-20T12:41:16.469Z,52.30
2022-12-20T12:46:30.200Z,52.46
2022-12-20T12:51:38.174Z,52.66
2022-12-20T12:56:46.237Z,52.20
2022-12-20T13:01:57.013Z,52.16
2022-12-20T13:07:00.139Z,52.18
2022-12-20T13:12:36.412Z,52.36
2022-12-20T13:17:58.707Z,52.39
2022-12-20T13:23:10.336Z,52.22
2022-12-20T13:28:24.045Z,52.17
2022-12-20T13:33:39.231Z,52.01
2022-12-20T13:38:44.837Z,52.19
2022-12-20T13:43:48.321Z,51.87
2022-12-20T13:48:53.532Z,51.97
2022-12-20T13:53:55.043Z,52.34
2022-12-20T13:59:03.165Z,52.14
2022-12-20T14:04:07.303Z,51.84
2022-12-20T14:09:28.668Z,52.32
2022-12-20T14:14:30.226Z,51.82
2022-12-20T14:19:31.729Z,51.98
2022-12-20T14:24:34.454Z,52.28
2022-12-20T14:29:36.071Z,52.20
2022-12-20T14:34:41.910Z,52.20
2022-12-20T14:40:04.321Z,52.24
2022-12-20T14:45:15.933Z,52.02
2022-12-20T14:50:22.328Z,51.99
2022-12-20T14:55:30.384Z,52.52
2022-12-20T15:05:35.761Z,52.49
2022-12-20T15:10:37.910Z,52.32
2022-12-20T15:15:39.987Z,52.50
2022-12-20T15:20:43.139Z,52.63
2022-12-20T15:25:45.830Z,52.14
2022-12-20T15:30:50.043Z,52.81
2022-12-20T15:35:52.545Z,52.65
2022-12-20T15:41:00.250Z,52.61
2022-12-20T15:46:01.813Z,53.07
2022-12-20T15:51:15.683Z,52.62
2022-12-20T15:56:21.695Z,52.54
2022-12-20T16:01:39.769Z,52.67
2022-12-20T16:06:43.499Z,52.62
2022-12-20T16:11:45.093Z,52.91
2022-12-20T16:16:48.808Z,52.68
2022-12-20T16:21:52.094Z,52.84
2022-12-20T16:26:53.568Z,52.77
2022-12-20T16:31:55.140Z,52.64
2022-12-20T16:36:56.873Z,52.66
2022-12-20T16:41:58.399Z,52.88
2022-12-20T16:46:59.953Z,52.99
2022-12-20T16:52:01.509Z,52.60
2022-12-20T16:57:03.007Z,53.01
2022-12-20T17:02:22.305Z,53.11
2022-12-20T17:07:24.307Z,52.96
2022-12-20T17:12:25.809Z,53.13
2022-12-20T17:17:27.323Z,53.04
2022-12-20T17:22:28.897Z,53.44
2022-12-20T17:27:30.510Z,53.09
2022-12-20T17:32:32.126Z,53.15
2022-12-20T17:37:33.825Z,52.86
2022-12-20T17:42:35.296Z,53.11
2022-12-20T17:47:36.771Z,53.11
2022-12-20T17:52:39.413Z,53.12
2022-12-20T17:57:40.926Z,53.41
2022-12-20T18:02:42.496Z,53.06
2022-12-20T18:07:48.854Z,53.17
2022-12-20T18:12:51.062Z,53.06
2022-12-20T18:17:52.547Z,52.87
2022-12-20T18:22:54.045Z,52.85
2022-12-20T18:27:55.564Z,52.89
2022-12-20T18:32:57.296Z,52.63
2022-12-20T18:37:58.834Z,52.96
2022-12-20T18:43:05.838Z,52.97
2022-12-20T18:48:07.926Z,52.68
2022-12-20T18:53:09.849Z,52.99
2022-12-20T18:58:12.108Z,52.72
2022-12-20T19:03:16.162Z,53.06
2022-12-20T19:08:19.020Z,52.48
2022-12-20T19:13:21.192Z,53.00
2022-12-20T19:18:22.839Z,53.04
2022-12-20T19:23:24.574Z,52.86
2022-12-20T19:28:26.128Z,53.23
2022-12-20T19:33:27.601Z,52.78
2022-12-20T19:38:29.113Z,52.84
2022-12-20T19:43:31.280Z,52.97
2022-12-20T19:48:33.667Z,53.07
2022-12-20T19:53:35.470Z,52.97
2022-12-20T19:58:38.145Z,53.00
2022-12-20T20:03:39.719Z,53.36
2022-12-20T20:08:42.429Z,52.81
2022-12-20T20:13:44.179Z,53.18
2022-12-20T20:18:46.307Z,52.88
2022-12-20T20:23:50.036Z,52.97
2022-12-20T20:28:52.276Z,52.92
2022-12-20T20:33:53.815Z,53.04
2022-12-20T20:38:55.790Z,52.69
2022-12-20T20:43:57.367Z,53.28
2022-12-20T20:48:59.943Z,53.05
2022-12-20T20:54:01.505Z,52.77
2022-12-20T20:59:08.076Z,53.02
2022-12-20T21:04:10.958Z,53.08
2022-12-20T21:09:12.573Z,53.00
2022-12-20T21:14:14.152Z,53.22
2022-12-20T21:19:16.124Z,53.01
2022-12-20T21:24:18.320Z,53.22
2022-12-20T21:29:20.214Z,53.43
2022-12-20T21:34:21.768Z,53.20
2022-12-20T21:39:23.324Z,53.29
2022-12-20T21:44:24.945Z,52.86
2022-12-20T21:49:27.192Z,53.22
2022-12-20T21:54:28.708Z,53.26
2022-12-20T21:59:30.344Z,53.03
2022-12-20T22:04:32.888Z,53.61
2022-12-20T22:09:34.393Z,52.83
2022-12-20T22:14:35.983Z,53.18
2022-12-20T22:19:38.320Z,53.29
2022-12-20T22:24:39.835Z,52.77
2022-12-20T22:29:41.291Z,53.10
2022-12-20T22:34:42.798Z,53.19
2022-12-20T22:39:44.368Z,53.29
2022-12-20T22:44:45.880Z,52.74
2022-12-20T22:49:47.359Z,53.18
2022-12-20T22:54:48.905Z,52.72
2022-12-20T22:59:50.565Z,53.30
2022-12-20T23:04:52.585Z,53.00
2022-12-20T23:09:54.110Z,53.08
2022-12-20T23:15:14.349Z,52.97
2022-12-20T23:20:34.637Z,52.98
2022-12-20T23:25:36.152Z,52.96
2022-12-20T23:30:37.676Z,53.10
2022-12-20T23:35:39.728Z,53.34
2022-12-20T23:40:41.370Z,53.08
2022-12-20T23:45:42.872Z,53.10
2022-12-20T23:50:44.418Z,53.14
2022-12-20T23:56:03.482Z,53.23
